Hutchinson Municipal Airport
KHUT : now visible

Airfield :











YOU CAN JOIN US ON...

 
LOGIN :

Register | Disclaimer

   EN    FR    IT 

 









Legend :    VFR   Marginal VFR   IFR   Intensive IFR   Very Intensive IFR
Visi :
Ceiling :
>= 8 km
>= 3000ft
5 to 8 km
1000 to 3000 ft
1500m to 5 km
500 to 1000 ft
800 to 1500m
200 to 500 ft
< 800m
< 200 ft
Symbols :   Thunderstorms  Fog  Heavy snow  Heavy precipitations  Wind > 20 kt






- Airport Elevation : 1543 ft


KHUT - Hutchinson Municipal

CURRENT METAR :
  • 100152Z 05006KT 10SM CLR 27/21 A2994 RMK AO2 SLP118 T02670206

EXPIRED METARs :
  • 100052Z 07007KT 10SM CLR 29/21 A2992 RMK AO2 SLP111 T02890206
  • 092352Z 10008KT 10SM FEW065 31/19 A2992 RMK AO2 SLP108 T03060194 10317 20289 55001

TAF KHUT
Valid from the 10 at 00:00 until the 11 at 00:00 UTC


092333Z 1000/1024 10010KT P6SM SCT080
FM100500 09005KT P6SM SCT080
FM101600 13011KT P6SM SCT050
KZKC FIR / North America



MET'MAP, your aeronautical weather chart ! - Copyright ORBIFLY December 2007 - Disclaimer

ORBIFLY MET'MAP TEAM :

Programming & Development : Alexandra Zaïnal
Concept & original design : Baudouin d'Aumeries
Assistance for programming : Marc-Olivier Méhu
Technical & hardware support : Manuel Goepfert

Contact : metmap@orbifly.com




SOURCES & CREDITS :

   NOAA       Earth
Advisory